KLM227 LPLA-EGKK
Flight info
| Callsign | KLM227 |
|---|---|
| Flight time | 3h 20m |
| Altitude | 40000 |
| Route | REGLA H121 BAVAS/M083F390 DCT LENSI DCT ERPES/N0479F400 DCT RIPEL DCT KORUL DCT FEJAC DCT JSY/N0487F340 DCT REVTU UP88 VASUX |
| Aircraft | B748/H-SDE3FGHIM1M2RWXY/LB1 |
Departure
| Time | 2026-05-06 14:57 |
|---|---|
| Airport | Lajes Airport (LPLA) |
Arrival
| Time | 2026-05-06 18:17 |
|---|---|
| Airport | London Gatwick Airport (EGKK) |
| Time | Latitude | Longitude | Altitude | Speed | Heading |
|---|---|---|---|---|---|
| 2026-05-06 14:45 | 38.76908 | -27.09499 | 181 ft | 0 kts | 81° |
| 2026-05-06 14:51 | 38.76911 | -27.09478 | 181 ft | 6 kts | 81° |
| 2026-05-06 14:52 | 38.76914 | -27.09394 | 182 ft | 12 kts | 102° |
| 2026-05-06 14:52 | 38.76850 | -27.09291 | 182 ft | 18 kts | 141° |
| 2026-05-06 14:52 | 38.76733 | -27.09177 | 183 ft | 23 kts | 142° |
| 2026-05-06 14:52 | 38.76617 | -27.09061 | 184 ft | 20 kts | 142° |
| 2026-05-06 14:53 | 38.76519 | -27.08958 | 196 ft | 17 kts | 141° |
| 2026-05-06 14:53 | 38.76443 | -27.08907 | 193 ft | 8 kts | 192° |
| 2026-05-06 14:53 | 38.76374 | -27.08968 | 196 ft | 13 kts | 202° |
| 2026-05-06 14:53 | 38.76284 | -27.08934 | 196 ft | 16 kts | 146° |
| 2026-05-06 14:54 | 38.76182 | -27.08831 | 201 ft | 21 kts | 140° |
| 2026-05-06 14:54 | 38.76057 | -27.08700 | 201 ft | 25 kts | 141° |
| 2026-05-06 14:54 | 38.75909 | -27.08546 | 202 ft | 29 kts | 141° |
| 2026-05-06 14:54 | 38.75749 | -27.08380 | 205 ft | 29 kts | 139° |
| 2026-05-06 14:55 | 38.75602 | -27.08221 | 204 ft | 26 kts | 141° |
| 2026-05-06 14:55 | 38.75471 | -27.08085 | 209 ft | 21 kts | 141° |
| 2026-05-06 14:55 | 38.75388 | -27.08035 | 209 ft | 9 kts | 192° |
| 2026-05-06 14:55 | 38.75342 | -27.08085 | 201 ft | 11 kts | 230° |
| 2026-05-06 14:56 | 38.75339 | -27.08182 | 211 ft | 13 kts | 295° |
| 2026-05-06 14:56 | 38.75418 | -27.08278 | 209 ft | 19 kts | 321° |
| 2026-05-06 14:56 | 38.75645 | -27.08514 | 204 ft | 72 kts | 321° |
| 2026-05-06 14:56 | 38.76209 | -27.09106 | 202 ft | 137 kts | 321° |
| 2026-05-06 14:57 | 38.77109 | -27.10047 | 355 ft | 190 kts | 321° |
| 2026-05-06 14:57 | 38.78197 | -27.11128 | 1316 ft | 194 kts | 327° |
| 2026-05-06 14:57 | 38.79472 | -27.11665 | 2565 ft | 197 kts | 351° |
| 2026-05-06 14:57 | 38.80816 | -27.11427 | 3676 ft | 202 kts | 19° |
| 2026-05-06 14:58 | 38.82085 | -27.10317 | 4254 ft | 243 kts | 46° |
| 2026-05-06 14:58 | 38.82890 | -27.08345 | 5267 ft | 263 kts | 75° |
| 2026-05-06 14:58 | 38.83003 | -27.05941 | 6233 ft | 279 kts | 99° |
| 2026-05-06 14:58 | 38.82656 | -27.03495 | 7631 ft | 284 kts | 102° |
| 2026-05-06 14:59 | 38.82233 | -27.00988 | 8876 ft | 292 kts | 103° |
| 2026-05-06 14:59 | 38.81766 | -26.98420 | 10097 ft | 300 kts | 104° |
| 2026-05-06 14:59 | 38.81263 | -26.95723 | 10871 ft | 324 kts | 104° |
| 2026-05-06 14:59 | 38.80715 | -26.92822 | 11589 ft | 345 kts | 105° |
| 2026-05-06 15:00 | 38.80134 | -26.89746 | 12361 ft | 365 kts | 105° |
| 2026-05-06 15:00 | 38.79525 | -26.86508 | 13168 ft | 382 kts | 105° |
| 2026-05-06 15:00 | 38.78913 | -26.83119 | 13987 ft | 399 kts | 103° |
| 2026-05-06 15:00 | 38.78450 | -26.79546 | 14685 ft | 415 kts | 93° |
| 2026-05-06 15:01 | 38.78639 | -26.75794 | 15417 ft | 429 kts | 82° |
| 2026-05-06 15:01 | 38.79113 | -26.71966 | 16193 ft | 440 kts | 79° |
| 2026-05-06 15:01 | 38.79627 | -26.68062 | 17078 ft | 448 kts | 79° |
| 2026-05-06 15:01 | 38.80145 | -26.64090 | 17965 ft | 456 kts | 79° |
| 2026-05-06 15:02 | 38.80614 | -26.60034 | 18779 ft | 463 kts | 81° |
| 2026-05-06 15:02 | 38.81024 | -26.55910 | 19555 ft | 469 kts | 82° |
| 2026-05-06 15:02 | 38.81455 | -26.51737 | 20316 ft | 475 kts | 80° |
| 2026-05-06 15:02 | 38.81954 | -26.47527 | 21060 ft | 481 kts | 81° |
| 2026-05-06 15:03 | 38.82395 | -26.43239 | 21796 ft | 487 kts | 82° |
| 2026-05-06 15:03 | 38.82830 | -26.38905 | 22517 ft | 493 kts | 81° |
| 2026-05-06 15:03 | 38.83342 | -26.34531 | 23225 ft | 499 kts | 81° |
| 2026-05-06 15:03 | 38.83799 | -26.30094 | 23902 ft | 505 kts | 82° |
| 2026-05-06 15:04 | 38.84085 | -26.27125 | 24294 ft | 508 kts | 82° |
| 2026-05-06 15:04 | 38.84585 | -26.22615 | 24888 ft | 513 kts | 80° |
| 2026-05-06 15:04 | 38.85080 | -26.18067 | 25481 ft | 517 kts | 81° |
| 2026-05-06 15:04 | 38.85528 | -26.13467 | 26055 ft | 522 kts | 81° |
| 2026-05-06 15:05 | 38.86007 | -26.07282 | 26822 ft | 529 kts | 84° |
| 2026-05-06 15:05 | 38.86197 | -26.04097 | 27182 ft | 532 kts | 84° |
| 2026-05-06 15:05 | 38.86468 | -25.99343 | 27739 ft | 536 kts | 84° |
| 2026-05-06 15:05 | 38.86954 | -25.93005 | 28455 ft | 542 kts | 83° |
| 2026-05-06 15:06 | 38.87173 | -25.89741 | 28818 ft | 545 kts | 83° |
| 2026-05-06 15:06 | 38.87462 | -25.84865 | 29336 ft | 550 kts | 84° |
| 2026-05-06 15:06 | 38.87799 | -25.79950 | 29850 ft | 554 kts | 82° |
| 2026-05-06 15:06 | 38.88158 | -25.75020 | 30476 ft | 556 kts | 83° |
| 2026-05-06 15:07 | 38.88451 | -25.70076 | 31094 ft | 556 kts | 84° |
| 2026-05-06 15:07 | 38.88764 | -25.65139 | 31722 ft | 555 kts | 82° |
| 2026-05-06 15:07 | 38.89129 | -25.60207 | 32360 ft | 554 kts | 83° |
| 2026-05-06 15:07 | 38.89421 | -25.55269 | 33023 ft | 554 kts | 83° |
| 2026-05-06 15:08 | 38.89711 | -25.50345 | 33669 ft | 553 kts | 82° |
| 2026-05-06 15:08 | 38.90071 | -25.45440 | 34326 ft | 552 kts | 82° |
| 2026-05-06 15:08 | 38.90361 | -25.40599 | 34909 ft | 551 kts | 83° |
| 2026-05-06 15:08 | 38.90636 | -25.35708 | 35501 ft | 549 kts | 82° |
| 2026-05-06 15:09 | 38.90987 | -25.30835 | 36101 ft | 547 kts | 81° |
| 2026-05-06 15:09 | 38.91280 | -25.25968 | 36706 ft | 546 kts | 82° |
| 2026-05-06 15:09 | 38.91541 | -25.21103 | 37319 ft | 545 kts | 81° |
| 2026-05-06 15:09 | 38.91880 | -25.16270 | 37906 ft | 543 kts | 80° |
| 2026-05-06 15:10 | 38.92173 | -25.11439 | 38504 ft | 543 kts | 81° |
| 2026-05-06 15:10 | 38.92423 | -25.06608 | 39070 ft | 541 kts | 81° |
| 2026-05-06 15:10 | 38.92740 | -25.01831 | 39227 ft | 536 kts | 79° |
| 2026-05-06 15:11 | 38.93295 | -24.92260 | 39234 ft | 538 kts | 81° |
| 2026-05-06 15:11 | 38.93890 | -24.82696 | 39236 ft | 537 kts | 81° |
| 2026-05-06 15:12 | 38.94394 | -24.73120 | 39242 ft | 537 kts | 80° |
| 2026-05-06 15:12 | 38.94974 | -24.63555 | 39242 ft | 538 kts | 81° |
| 2026-05-06 15:13 | 38.95509 | -24.53971 | 39246 ft | 537 kts | 80° |
| 2026-05-06 15:13 | 38.96016 | -24.44381 | 39244 ft | 538 kts | 81° |
| 2026-05-06 15:14 | 38.96573 | -24.34868 | 39245 ft | 538 kts | 81° |
| 2026-05-06 15:14 | 38.97035 | -24.25272 | 39238 ft | 537 kts | 81° |
| 2026-05-06 15:15 | 38.97582 | -24.15696 | 39236 ft | 537 kts | 81° |
| 2026-05-06 15:15 | 38.98066 | -24.06122 | 39243 ft | 535 kts | 80° |
| 2026-05-06 15:16 | 38.98550 | -23.96559 | 39238 ft | 537 kts | 82° |
| 2026-05-06 15:16 | 38.99056 | -23.87001 | 39234 ft | 535 kts | 81° |
| 2026-05-06 15:17 | 38.99487 | -23.77495 | 39237 ft | 536 kts | 82° |
| 2026-05-06 15:17 | 38.99999 | -23.67955 | 39238 ft | 535 kts | 81° |
| 2026-05-06 15:18 | 39.00088 | -23.58356 | 39230 ft | 538 kts | 85° |
| 2026-05-06 15:18 | 39.00293 | -23.48776 | 39232 ft | 536 kts | 83° |
| 2026-05-06 15:19 | 39.00390 | -23.39189 | 39235 ft | 536 kts | 85° |
| 2026-05-06 15:19 | 39.00534 | -23.29636 | 39235 ft | 534 kts | 84° |
| 2026-05-06 15:20 | 39.00619 | -23.20070 | 39229 ft | 535 kts | 84° |
| 2026-05-06 15:20 | 39.00759 | -23.10529 | 39231 ft | 534 kts | 84° |
| 2026-05-06 15:21 | 39.00818 | -23.01045 | 39229 ft | 534 kts | 85° |
| 2026-05-06 15:21 | 39.00951 | -22.91512 | 39231 ft | 533 kts | 84° |
| 2026-05-06 15:22 | 39.00989 | -22.81984 | 39226 ft | 533 kts | 85° |
| 2026-05-06 15:22 | 39.01108 | -22.72478 | 39230 ft | 532 kts | 84° |
| 2026-05-06 15:23 | 39.01129 | -22.62975 | 39221 ft | 531 kts | 84° |
| 2026-05-06 15:23 | 39.01238 | -22.53497 | 39222 ft | 530 kts | 85° |
| 2026-05-06 15:24 | 39.01243 | -22.44014 | 39220 ft | 530 kts | 85° |
| 2026-05-06 15:24 | 39.01336 | -22.34547 | 39223 ft | 529 kts | 85° |
| 2026-05-06 15:25 | 39.01328 | -22.25086 | 39212 ft | 529 kts | 85° |
| 2026-05-06 15:25 | 39.01404 | -22.15641 | 39220 ft | 528 kts | 85° |
| 2026-05-06 15:26 | 39.01385 | -22.06186 | 39217 ft | 528 kts | 85° |
| 2026-05-06 15:26 | 39.01438 | -21.96763 | 39215 ft | 527 kts | 84° |
| 2026-05-06 15:27 | 39.01412 | -21.87356 | 39211 ft | 526 kts | 85° |
| 2026-05-06 15:27 | 39.01439 | -21.77957 | 39215 ft | 525 kts | 84° |
| 2026-05-06 15:28 | 39.01410 | -21.68570 | 39209 ft | 525 kts | 85° |
| 2026-05-06 15:28 | 39.01405 | -21.59246 | 39213 ft | 524 kts | 84° |
| 2026-05-06 15:29 | 39.01379 | -21.49866 | 39216 ft | 525 kts | 85° |
| 2026-05-06 15:29 | 39.01331 | -21.40480 | 39211 ft | 524 kts | 84° |
| 2026-05-06 15:30 | 39.01318 | -21.31108 | 39202 ft | 525 kts | 85° |
| 2026-05-06 15:30 | 39.01233 | -21.21723 | 39198 ft | 525 kts | 85° |
| 2026-05-06 15:31 | 39.01226 | -21.12345 | 39201 ft | 525 kts | 85° |
| 2026-05-06 15:31 | 39.01129 | -21.02959 | 39206 ft | 525 kts | 85° |
| 2026-05-06 15:32 | 39.01057 | -20.88880 | 39206 ft | 525 kts | 85° |
| 2026-05-06 15:32 | 39.00939 | -20.79467 | 39208 ft | 529 kts | 85° |
| 2026-05-06 15:33 | 39.00912 | -20.74721 | 39472 ft | 529 kts | 84° |
| 2026-05-06 15:33 | 39.00893 | -20.69993 | 39809 ft | 530 kts | 85° |
| 2026-05-06 15:33 | 39.00841 | -20.65256 | 40150 ft | 528 kts | 86° |
| 2026-05-06 15:33 | 39.00774 | -20.60544 | 40179 ft | 527 kts | 86° |
| 2026-05-06 15:34 | 39.00664 | -20.51134 | 40191 ft | 526 kts | 85° |
| 2026-05-06 15:34 | 39.00577 | -20.41794 | 40197 ft | 526 kts | 86° |
| 2026-05-06 15:35 | 39.00427 | -20.32381 | 40201 ft | 526 kts | 86° |
| 2026-05-06 15:35 | 39.00335 | -20.22976 | 40196 ft | 526 kts | 86° |
| 2026-05-06 15:36 | 39.00187 | -20.13575 | 40197 ft | 526 kts | 86° |
| 2026-05-06 15:36 | 39.00023 | -20.04179 | 40196 ft | 525 kts | 86° |
| 2026-05-06 15:37 | 39.00752 | -19.95006 | 40216 ft | 509 kts | 66° |
| 2026-05-06 15:37 | 39.03060 | -19.86422 | 40193 ft | 508 kts | 65° |
| 2026-05-06 15:38 | 39.04968 | -19.77612 | 40194 ft | 512 kts | 69° |
| 2026-05-06 15:38 | 39.06963 | -19.68849 | 40189 ft | 510 kts | 68° |
| 2026-05-06 15:39 | 39.08900 | -19.60116 | 40191 ft | 511 kts | 69° |
| 2026-05-06 15:39 | 39.10798 | -19.51304 | 40189 ft | 511 kts | 69° |
| 2026-05-06 15:40 | 39.12709 | -19.42494 | 40193 ft | 511 kts | 69° |
| 2026-05-06 15:40 | 39.14635 | -19.33693 | 40187 ft | 510 kts | 69° |
| 2026-05-06 15:41 | 39.16555 | -19.24891 | 40176 ft | 510 kts | 69° |
| 2026-05-06 15:41 | 39.18463 | -19.16085 | 40179 ft | 510 kts | 69° |
| 2026-05-06 15:42 | 39.20363 | -19.07277 | 40190 ft | 510 kts | 69° |
| 2026-05-06 15:42 | 39.22260 | -18.98449 | 40191 ft | 511 kts | 69° |
| 2026-05-06 15:43 | 39.24150 | -18.89620 | 40183 ft | 511 kts | 69° |
| 2026-05-06 15:43 | 39.26035 | -18.80779 | 40178 ft | 511 kts | 69° |
| 2026-05-06 15:44 | 39.27912 | -18.71934 | 40180 ft | 511 kts | 69° |
| 2026-05-06 15:44 | 39.29785 | -18.63078 | 40179 ft | 511 kts | 69° |
| 2026-05-06 15:45 | 39.31651 | -18.54215 | 40174 ft | 511 kts | 70° |
| 2026-05-06 15:45 | 39.33512 | -18.45343 | 40172 ft | 512 kts | 70° |
| 2026-05-06 15:46 | 39.35364 | -18.36467 | 40168 ft | 512 kts | 70° |
| 2026-05-06 15:46 | 39.37210 | -18.27587 | 40170 ft | 512 kts | 70° |
| 2026-05-06 15:47 | 39.39050 | -18.18704 | 40170 ft | 512 kts | 70° |
| 2026-05-06 15:47 | 39.40883 | -18.09813 | 40169 ft | 512 kts | 70° |
| 2026-05-06 15:48 | 39.42708 | -18.00923 | 40161 ft | 512 kts | 70° |
| 2026-05-06 15:48 | 39.44529 | -17.92018 | 40162 ft | 512 kts | 70° |
| 2026-05-06 15:49 | 39.46345 | -17.83098 | 40160 ft | 513 kts | 70° |
| 2026-05-06 15:49 | 39.48142 | -17.74231 | 40162 ft | 513 kts | 70° |
| 2026-05-06 15:50 | 39.49948 | -17.65282 | 40159 ft | 514 kts | 70° |
| 2026-05-06 15:50 | 39.51748 | -17.56321 | 40157 ft | 515 kts | 70° |
| 2026-05-06 15:51 | 39.53543 | -17.47344 | 40159 ft | 516 kts | 70° |
| 2026-05-06 15:51 | 39.55337 | -17.38337 | 40156 ft | 516 kts | 70° |
| 2026-05-06 15:52 | 39.57128 | -17.29308 | 40142 ft | 517 kts | 70° |
| 2026-05-06 15:52 | 39.58612 | -17.21790 | 40145 ft | 518 kts | 70° |
| 2026-05-06 15:53 | 39.60395 | -17.12723 | 40150 ft | 520 kts | 70° |
| 2026-05-06 15:53 | 39.62176 | -17.03628 | 40151 ft | 521 kts | 70° |
| 2026-05-06 15:54 | 39.63953 | -16.94509 | 40149 ft | 522 kts | 70° |
| 2026-05-06 15:54 | 39.65729 | -16.85353 | 40147 ft | 523 kts | 70° |
| 2026-05-06 15:55 | 39.67499 | -16.76191 | 40149 ft | 524 kts | 70° |
| 2026-05-06 15:55 | 39.69264 | -16.67009 | 40149 ft | 524 kts | 70° |
| 2026-05-06 15:56 | 39.71023 | -16.57821 | 40144 ft | 525 kts | 70° |
| 2026-05-06 15:56 | 39.72777 | -16.48616 | 40144 ft | 525 kts | 70° |
| 2026-05-06 15:57 | 39.74513 | -16.39467 | 40138 ft | 525 kts | 70° |
| 2026-05-06 15:57 | 39.76252 | -16.30260 | 40135 ft | 524 kts | 70° |
| 2026-05-06 15:58 | 39.77982 | -16.21051 | 40136 ft | 524 kts | 70° |
| 2026-05-06 15:58 | 39.79704 | -16.11848 | 40138 ft | 524 kts | 70° |
| 2026-05-06 15:59 | 39.81416 | -16.02654 | 40135 ft | 523 kts | 70° |
| 2026-05-06 15:59 | 39.83118 | -15.93471 | 40129 ft | 522 kts | 71° |
| 2026-05-06 16:00 | 39.84812 | -15.84290 | 40134 ft | 521 kts | 71° |
| 2026-05-06 16:00 | 39.86495 | -15.75125 | 40118 ft | 520 kts | 71° |
| 2026-05-06 16:01 | 39.88167 | -15.65971 | 40122 ft | 519 kts | 71° |
| 2026-05-06 16:01 | 39.89831 | -15.56827 | 40124 ft | 519 kts | 71° |
| 2026-05-06 16:02 | 39.91488 | -15.47674 | 40122 ft | 519 kts | 71° |
| 2026-05-06 16:02 | 39.93135 | -15.38530 | 40116 ft | 518 kts | 71° |
| 2026-05-06 16:03 | 39.94772 | -15.29389 | 40121 ft | 518 kts | 71° |
| 2026-05-06 16:03 | 39.96392 | -15.20311 | 40116 ft | 518 kts | 72° |
| 2026-05-06 16:04 | 39.98020 | -15.11157 | 40119 ft | 518 kts | 72° |
| 2026-05-06 16:04 | 39.99765 | -15.02057 | 40100 ft | 513 kts | 62° |
| 2026-05-06 16:05 | 40.03119 | -14.94034 | 40136 ft | 498 kts | 46° |
| 2026-05-06 16:05 | 40.07506 | -14.87063 | 40112 ft | 497 kts | 44° |
| 2026-05-06 16:06 | 40.11718 | -14.79862 | 40105 ft | 501 kts | 49° |
| 2026-05-06 16:06 | 40.15908 | -14.72608 | 40106 ft | 499 kts | 46° |
| 2026-05-06 16:07 | 40.20114 | -14.65368 | 40107 ft | 501 kts | 49° |
| 2026-05-06 16:07 | 40.24272 | -14.58051 | 40109 ft | 501 kts | 48° |
| 2026-05-06 16:08 | 40.28466 | -14.50778 | 40107 ft | 501 kts | 48° |
| 2026-05-06 16:08 | 40.32663 | -14.43491 | 40106 ft | 501 kts | 48° |
| 2026-05-06 16:09 | 40.36849 | -14.36191 | 40105 ft | 501 kts | 48° |
| 2026-05-06 16:09 | 40.41027 | -14.28877 | 40107 ft | 501 kts | 48° |
| 2026-05-06 16:10 | 40.45202 | -14.21548 | 40105 ft | 501 kts | 49° |
| 2026-05-06 16:10 | 40.49371 | -14.14212 | 40105 ft | 501 kts | 49° |
| 2026-05-06 16:11 | 40.53534 | -14.06870 | 40101 ft | 501 kts | 49° |
| 2026-05-06 16:11 | 40.57665 | -13.99568 | 40103 ft | 501 kts | 49° |
| 2026-05-06 16:12 | 40.61819 | -13.92209 | 40099 ft | 501 kts | 49° |
| 2026-05-06 16:12 | 40.65967 | -13.84841 | 40086 ft | 501 kts | 49° |
| 2026-05-06 16:13 | 40.70110 | -13.77466 | 40092 ft | 501 kts | 49° |
| 2026-05-06 16:13 | 40.74246 | -13.70084 | 40098 ft | 500 kts | 49° |
| 2026-05-06 16:14 | 40.78377 | -13.62694 | 40090 ft | 500 kts | 50° |
| 2026-05-06 16:14 | 40.82499 | -13.55302 | 40090 ft | 500 kts | 50° |
| 2026-05-06 16:15 | 40.86619 | -13.47897 | 40089 ft | 500 kts | 50° |
| 2026-05-06 16:15 | 40.90734 | -13.40483 | 40090 ft | 500 kts | 50° |
| 2026-05-06 16:16 | 40.94842 | -13.33063 | 40090 ft | 500 kts | 50° |
| 2026-05-06 16:16 | 40.98942 | -13.25640 | 40087 ft | 500 kts | 50° |
| 2026-05-06 16:17 | 41.03041 | -13.18201 | 40084 ft | 500 kts | 50° |
| 2026-05-06 16:17 | 41.07107 | -13.10803 | 40083 ft | 500 kts | 50° |
| 2026-05-06 16:18 | 41.11197 | -13.03343 | 40082 ft | 500 kts | 51° |
| 2026-05-06 16:18 | 41.15276 | -12.95885 | 40079 ft | 500 kts | 51° |
| 2026-05-06 16:19 | 41.19353 | -12.88413 | 40081 ft | 500 kts | 51° |
| 2026-05-06 16:19 | 41.23427 | -12.80929 | 40072 ft | 500 kts | 51° |
| 2026-05-06 16:20 | 41.27491 | -12.73445 | 40076 ft | 500 kts | 51° |
| 2026-05-06 16:20 | 41.31565 | -12.65923 | 40073 ft | 500 kts | 51° |
| 2026-05-06 16:21 | 41.35625 | -12.58408 | 40074 ft | 500 kts | 51° |
| 2026-05-06 16:21 | 41.39680 | -12.50884 | 40075 ft | 500 kts | 51° |
| 2026-05-06 16:22 | 41.43737 | -12.43340 | 40076 ft | 501 kts | 51° |
| 2026-05-06 16:22 | 41.47789 | -12.35786 | 40055 ft | 501 kts | 51° |
| 2026-05-06 16:23 | 41.51838 | -12.28217 | 40053 ft | 501 kts | 52° |
| 2026-05-06 16:23 | 41.55882 | -12.20641 | 40055 ft | 501 kts | 52° |
| 2026-05-06 16:24 | 41.59920 | -12.13055 | 40062 ft | 501 kts | 52° |
| 2026-05-06 16:24 | 41.63958 | -12.05451 | 40059 ft | 501 kts | 52° |
| 2026-05-06 16:25 | 41.67991 | -11.97839 | 40059 ft | 502 kts | 52° |
| 2026-05-06 16:25 | 41.71991 | -11.90269 | 40063 ft | 502 kts | 52° |
| 2026-05-06 16:26 | 41.76014 | -11.82636 | 40061 ft | 502 kts | 52° |
| 2026-05-06 16:26 | 41.80037 | -11.74986 | 40058 ft | 502 kts | 52° |
| 2026-05-06 16:27 | 41.84050 | -11.67333 | 40061 ft | 502 kts | 52° |
| 2026-05-06 16:27 | 41.88062 | -11.59663 | 40055 ft | 502 kts | 52° |
| 2026-05-06 16:28 | 41.92066 | -11.51989 | 40057 ft | 502 kts | 52° |
| 2026-05-06 16:28 | 41.96070 | -11.44297 | 40058 ft | 502 kts | 52° |
| 2026-05-06 16:29 | 42.00066 | -11.36600 | 40054 ft | 502 kts | 53° |
| 2026-05-06 16:29 | 42.04054 | -11.28898 | 40048 ft | 502 kts | 53° |
| 2026-05-06 16:30 | 42.07367 | -11.22486 | 40051 ft | 502 kts | 53° |
| 2026-05-06 16:30 | 42.12026 | -11.13447 | 40052 ft | 502 kts | 53° |
| 2026-05-06 16:31 | 42.16003 | -11.05706 | 40046 ft | 503 kts | 53° |
| 2026-05-06 16:31 | 42.19979 | -10.97950 | 40048 ft | 503 kts | 53° |
| 2026-05-06 16:32 | 42.23948 | -10.90191 | 40046 ft | 503 kts | 53° |
| 2026-05-06 16:32 | 42.27917 | -10.82417 | 40045 ft | 502 kts | 52° |
| 2026-05-06 16:33 | 42.32466 | -10.75319 | 40046 ft | 500 kts | 43° |
| 2026-05-06 16:34 | 42.39743 | -10.65317 | 40035 ft | 500 kts | 46° |
| 2026-05-06 16:34 | 42.44461 | -10.58404 | 40033 ft | 499 kts | 43° |
| 2026-05-06 16:35 | 42.49270 | -10.51617 | 40036 ft | 500 kts | 45° |
| 2026-05-06 16:35 | 42.53990 | -10.44684 | 40036 ft | 500 kts | 45° |
| 2026-05-06 16:36 | 42.58746 | -10.37805 | 40036 ft | 500 kts | 44° |
| 2026-05-06 16:36 | 42.63512 | -10.30921 | 40033 ft | 500 kts | 44° |
| 2026-05-06 16:37 | 42.68266 | -10.24025 | 40036 ft | 500 kts | 45° |
| 2026-05-06 16:37 | 42.73011 | -10.17114 | 40031 ft | 500 kts | 45° |
| 2026-05-06 16:38 | 42.77749 | -10.10187 | 40034 ft | 500 kts | 45° |
| 2026-05-06 16:38 | 42.82485 | -10.03246 | 40031 ft | 500 kts | 45° |
| 2026-05-06 16:39 | 42.87218 | -9.96297 | 40040 ft | 500 kts | 45° |
| 2026-05-06 16:39 | 42.91146 | -9.90515 | 40037 ft | 500 kts | 45° |
| 2026-05-06 16:40 | 42.95867 | -9.83552 | 40039 ft | 500 kts | 45° |
| 2026-05-06 16:40 | 43.00584 | -9.76576 | 40036 ft | 500 kts | 45° |
| 2026-05-06 16:41 | 43.05296 | -9.69593 | 40039 ft | 500 kts | 45° |
| 2026-05-06 16:41 | 43.10004 | -9.62597 | 40035 ft | 499 kts | 45° |
| 2026-05-06 16:42 | 43.14701 | -9.55601 | 40034 ft | 499 kts | 45° |
| 2026-05-06 16:42 | 43.19403 | -9.48581 | 40031 ft | 499 kts | 45° |
| 2026-05-06 16:43 | 43.24092 | -9.41562 | 40034 ft | 499 kts | 45° |
| 2026-05-06 16:43 | 43.28744 | -9.34582 | 40030 ft | 499 kts | 45° |
| 2026-05-06 16:44 | 43.33424 | -9.27542 | 40029 ft | 498 kts | 45° |
| 2026-05-06 16:44 | 43.38095 | -9.20502 | 40016 ft | 498 kts | 45° |
| 2026-05-06 16:45 | 43.42755 | -9.13457 | 40022 ft | 498 kts | 45° |
| 2026-05-06 16:45 | 43.47416 | -9.06395 | 40022 ft | 498 kts | 45° |
| 2026-05-06 16:46 | 43.52067 | -8.99329 | 40025 ft | 498 kts | 45° |
| 2026-05-06 16:46 | 43.56713 | -8.92253 | 40025 ft | 498 kts | 45° |
| 2026-05-06 16:47 | 43.61354 | -8.85169 | 40033 ft | 497 kts | 45° |
| 2026-05-06 16:47 | 43.65988 | -8.78077 | 40030 ft | 497 kts | 46° |
| 2026-05-06 16:48 | 43.70617 | -8.70977 | 40033 ft | 497 kts | 46° |
| 2026-05-06 16:48 | 43.75239 | -8.63869 | 40031 ft | 497 kts | 46° |
| 2026-05-06 16:49 | 43.79857 | -8.56747 | 40034 ft | 497 kts | 46° |
| 2026-05-06 16:49 | 43.84470 | -8.49617 | 40026 ft | 497 kts | 46° |
| 2026-05-06 16:50 | 43.89079 | -8.42476 | 40034 ft | 497 kts | 46° |
| 2026-05-06 16:50 | 43.93682 | -8.35324 | 40026 ft | 497 kts | 46° |
| 2026-05-06 16:51 | 43.98278 | -8.28167 | 40026 ft | 497 kts | 46° |
| 2026-05-06 16:51 | 44.02843 | -8.21040 | 40025 ft | 497 kts | 46° |
| 2026-05-06 16:52 | 44.07431 | -8.13857 | 40029 ft | 497 kts | 46° |
| 2026-05-06 16:52 | 44.12014 | -8.06665 | 40031 ft | 497 kts | 46° |
| 2026-05-06 16:53 | 44.16593 | -7.99460 | 40028 ft | 497 kts | 46° |
| 2026-05-06 16:53 | 44.21167 | -7.92246 | 40026 ft | 497 kts | 46° |
| 2026-05-06 16:54 | 44.25734 | -7.85026 | 40032 ft | 496 kts | 46° |
| 2026-05-06 16:54 | 44.30294 | -7.77795 | 40024 ft | 496 kts | 46° |
| 2026-05-06 16:55 | 44.34849 | -7.70556 | 40032 ft | 496 kts | 46° |
| 2026-05-06 16:55 | 44.39397 | -7.63309 | 40031 ft | 496 kts | 47° |
| 2026-05-06 16:56 | 44.43939 | -7.56052 | 40031 ft | 496 kts | 47° |
| 2026-05-06 16:56 | 44.48478 | -7.48785 | 40017 ft | 496 kts | 47° |
| 2026-05-06 16:57 | 44.53009 | -7.41508 | 40022 ft | 496 kts | 47° |
| 2026-05-06 16:57 | 44.57538 | -7.34215 | 40024 ft | 496 kts | 47° |
| 2026-05-06 16:58 | 44.62063 | -7.26912 | 40024 ft | 496 kts | 47° |
| 2026-05-06 16:58 | 44.66580 | -7.19604 | 40026 ft | 496 kts | 47° |
| 2026-05-06 16:59 | 44.71094 | -7.12279 | 40030 ft | 496 kts | 47° |
| 2026-05-06 16:59 | 44.75606 | -7.04942 | 40030 ft | 496 kts | 47° |
| 2026-05-06 17:00 | 44.80111 | -6.97598 | 40029 ft | 496 kts | 47° |
| 2026-05-06 17:00 | 44.84740 | -6.90425 | 40023 ft | 493 kts | 38° |
| 2026-05-06 17:01 | 44.90336 | -6.84902 | 40029 ft | 491 kts | 31° |
| 2026-05-06 17:01 | 44.95966 | -6.79549 | 40017 ft | 492 kts | 35° |
| 2026-05-06 17:02 | 45.01461 | -6.73777 | 40011 ft | 492 kts | 33° |
| 2026-05-06 17:02 | 45.07066 | -6.68247 | 40011 ft | 492 kts | 34° |
| 2026-05-06 17:03 | 45.12589 | -6.62522 | 40014 ft | 492 kts | 34° |
| 2026-05-06 17:03 | 45.18138 | -6.56862 | 40014 ft | 492 kts | 34° |
| 2026-05-06 17:04 | 45.23701 | -6.51207 | 40017 ft | 492 kts | 34° |
| 2026-05-06 17:04 | 45.29252 | -6.45538 | 40010 ft | 492 kts | 34° |
| 2026-05-06 17:05 | 45.34796 | -6.39847 | 40021 ft | 492 kts | 34° |
| 2026-05-06 17:05 | 45.40333 | -6.34140 | 40028 ft | 492 kts | 34° |
| 2026-05-06 17:06 | 45.45873 | -6.28419 | 40029 ft | 492 kts | 34° |
| 2026-05-06 17:06 | 45.51407 | -6.22691 | 40025 ft | 492 kts | 34° |
| 2026-05-06 17:07 | 45.56935 | -6.16955 | 40027 ft | 492 kts | 34° |
| 2026-05-06 17:07 | 45.62429 | -6.11236 | 40023 ft | 492 kts | 34° |
| 2026-05-06 17:08 | 45.67990 | -6.05430 | 40025 ft | 492 kts | 34° |
| 2026-05-06 17:08 | 45.73484 | -5.99686 | 40027 ft | 492 kts | 34° |
| 2026-05-06 17:09 | 45.79011 | -5.93895 | 40025 ft | 492 kts | 34° |
| 2026-05-06 17:09 | 45.84530 | -5.88089 | 40027 ft | 492 kts | 34° |
| 2026-05-06 17:10 | 45.90048 | -5.82277 | 40019 ft | 492 kts | 35° |
| 2026-05-06 17:10 | 45.95568 | -5.76454 | 40021 ft | 492 kts | 35° |
| 2026-05-06 17:11 | 46.01089 | -5.70611 | 40024 ft | 493 kts | 35° |
| 2026-05-06 17:11 | 46.06600 | -5.64752 | 40021 ft | 493 kts | 35° |
| 2026-05-06 17:12 | 46.12111 | -5.58888 | 40019 ft | 493 kts | 35° |
| 2026-05-06 17:12 | 46.17628 | -5.53004 | 40023 ft | 493 kts | 35° |
| 2026-05-06 17:13 | 46.23141 | -5.47104 | 40017 ft | 494 kts | 35° |
| 2026-05-06 17:13 | 46.28659 | -5.41185 | 40020 ft | 494 kts | 35° |
| 2026-05-06 17:14 | 46.34178 | -5.35252 | 40021 ft | 494 kts | 35° |
| 2026-05-06 17:14 | 46.39695 | -5.29304 | 40017 ft | 494 kts | 35° |
| 2026-05-06 17:15 | 46.45206 | -5.23347 | 40015 ft | 494 kts | 35° |
| 2026-05-06 17:15 | 46.50684 | -5.17413 | 40015 ft | 495 kts | 35° |
| 2026-05-06 17:16 | 46.56196 | -5.11428 | 40016 ft | 495 kts | 36° |
| 2026-05-06 17:16 | 46.61707 | -5.05430 | 40014 ft | 495 kts | 36° |
| 2026-05-06 17:17 | 46.67222 | -4.99404 | 40010 ft | 495 kts | 36° |
| 2026-05-06 17:17 | 46.72734 | -4.93367 | 40009 ft | 496 kts | 36° |
| 2026-05-06 17:18 | 46.78241 | -4.87324 | 40012 ft | 496 kts | 36° |
| 2026-05-06 17:18 | 46.83750 | -4.81259 | 40010 ft | 496 kts | 36° |
| 2026-05-06 17:19 | 46.89254 | -4.75183 | 40002 ft | 496 kts | 36° |
| 2026-05-06 17:19 | 46.94756 | -4.69094 | 40006 ft | 496 kts | 36° |
| 2026-05-06 17:20 | 47.00261 | -4.62990 | 39997 ft | 496 kts | 36° |
| 2026-05-06 17:20 | 47.05761 | -4.56872 | 39995 ft | 497 kts | 36° |
| 2026-05-06 17:21 | 47.11221 | -4.50780 | 39997 ft | 496 kts | 36° |
| 2026-05-06 17:21 | 47.16720 | -4.44633 | 39993 ft | 496 kts | 36° |
| 2026-05-06 17:22 | 47.22214 | -4.38474 | 39990 ft | 497 kts | 37° |
| 2026-05-06 17:22 | 47.27708 | -4.32296 | 39989 ft | 497 kts | 37° |
| 2026-05-06 17:23 | 47.33202 | -4.26102 | 39985 ft | 497 kts | 37° |
| 2026-05-06 17:23 | 47.38694 | -4.19895 | 39982 ft | 498 kts | 37° |
| 2026-05-06 17:24 | 47.44192 | -4.13665 | 39980 ft | 498 kts | 37° |
| 2026-05-06 17:24 | 47.49678 | -4.07431 | 39980 ft | 497 kts | 37° |
| 2026-05-06 17:25 | 47.55164 | -4.01181 | 39962 ft | 498 kts | 37° |
| 2026-05-06 17:25 | 47.60608 | -3.94957 | 39963 ft | 498 kts | 37° |
| 2026-05-06 17:26 | 47.66119 | -3.88641 | 39960 ft | 498 kts | 37° |
| 2026-05-06 17:26 | 47.71559 | -3.82393 | 39953 ft | 497 kts | 37° |
| 2026-05-06 17:27 | 47.77026 | -3.76094 | 39955 ft | 497 kts | 37° |
| 2026-05-06 17:27 | 47.82489 | -3.69786 | 39966 ft | 497 kts | 37° |
| 2026-05-06 17:28 | 47.87948 | -3.63463 | 39969 ft | 497 kts | 37° |
| 2026-05-06 17:28 | 47.93397 | -3.57132 | 39963 ft | 497 kts | 37° |
| 2026-05-06 17:29 | 47.97926 | -3.51859 | 39967 ft | 497 kts | 37° |
| 2026-05-06 17:29 | 48.03368 | -3.45505 | 39967 ft | 497 kts | 37° |
| 2026-05-06 17:30 | 48.08809 | -3.39137 | 39971 ft | 497 kts | 37° |
| 2026-05-06 17:30 | 48.14245 | -3.32755 | 39971 ft | 497 kts | 37° |
| 2026-05-06 17:31 | 48.19678 | -3.26362 | 39974 ft | 496 kts | 37° |
| 2026-05-06 17:31 | 48.25110 | -3.19951 | 39971 ft | 497 kts | 38° |
| 2026-05-06 17:32 | 48.30543 | -3.13519 | 39982 ft | 497 kts | 38° |
| 2026-05-06 17:32 | 48.35976 | -3.07069 | 39998 ft | 498 kts | 38° |
| 2026-05-06 17:33 | 48.41406 | -3.00609 | 39990 ft | 498 kts | 38° |
| 2026-05-06 17:33 | 48.46835 | -2.94130 | 39998 ft | 498 kts | 38° |
| 2026-05-06 17:34 | 48.52254 | -2.87641 | 39999 ft | 498 kts | 38° |
| 2026-05-06 17:34 | 48.57672 | -2.81140 | 40002 ft | 498 kts | 38° |
| 2026-05-06 17:35 | 48.63091 | -2.74619 | 39996 ft | 497 kts | 38° |
| 2026-05-06 17:35 | 48.68501 | -2.68094 | 39990 ft | 498 kts | 38° |
| 2026-05-06 17:36 | 48.76605 | -2.58265 | 39985 ft | 498 kts | 38° |
| 2026-05-06 17:36 | 48.82048 | -2.51783 | 39978 ft | 498 kts | 36° |
| 2026-05-06 17:37 | 48.87581 | -2.45458 | 39983 ft | 498 kts | 37° |
| 2026-05-06 17:37 | 48.93041 | -2.38983 | 39986 ft | 498 kts | 37° |
| 2026-05-06 17:38 | 48.98513 | -2.32542 | 39989 ft | 497 kts | 37° |
| 2026-05-06 17:38 | 49.03993 | -2.26106 | 39998 ft | 497 kts | 37° |
| 2026-05-06 17:39 | 49.09469 | -2.19646 | 39984 ft | 498 kts | 37° |
| 2026-05-06 17:39 | 49.14933 | -2.13177 | 40005 ft | 497 kts | 37° |
| 2026-05-06 17:40 | 49.20395 | -2.06683 | 39993 ft | 497 kts | 37° |
| 2026-05-06 17:40 | 49.26149 | -2.00872 | 40007 ft | 496 kts | 27° |
| 2026-05-06 17:41 | 49.32270 | -1.96060 | 39988 ft | 496 kts | 26° |
| 2026-05-06 17:41 | 49.38280 | -1.90869 | 39985 ft | 496 kts | 29° |
| 2026-05-06 17:42 | 49.44328 | -1.85765 | 39983 ft | 496 kts | 27° |
| 2026-05-06 17:42 | 49.50373 | -1.80627 | 39990 ft | 496 kts | 28° |
| 2026-05-06 17:43 | 49.56382 | -1.75411 | 39990 ft | 496 kts | 28° |
| 2026-05-06 17:43 | 49.59411 | -1.72847 | 39872 ft | 498 kts | 26° |
| 2026-05-06 17:43 | 49.62574 | -1.70656 | 39227 ft | 499 kts | 19° |
| 2026-05-06 17:44 | 49.65852 | -1.68911 | 38591 ft | 497 kts | 17° |
| 2026-05-06 17:44 | 49.69131 | -1.67307 | 37817 ft | 493 kts | 15° |
| 2026-05-06 17:44 | 49.72393 | -1.65681 | 37105 ft | 491 kts | 18° |
| 2026-05-06 17:44 | 49.75581 | -1.63840 | 36462 ft | 489 kts | 20° |
| 2026-05-06 17:45 | 49.78723 | -1.61994 | 35839 ft | 488 kts | 19° |
| 2026-05-06 17:45 | 49.81913 | -1.60261 | 35204 ft | 486 kts | 17° |
| 2026-05-06 17:45 | 49.85106 | -1.58565 | 34581 ft | 483 kts | 18° |
| 2026-05-06 17:45 | 49.88250 | -1.56837 | 33940 ft | 476 kts | 18° |
| 2026-05-06 17:46 | 49.91344 | -1.55062 | 33239 ft | 470 kts | 19° |
| 2026-05-06 17:46 | 49.94390 | -1.53333 | 32599 ft | 464 kts | 18° |
| 2026-05-06 17:46 | 49.97411 | -1.51642 | 31916 ft | 459 kts | 18° |
| 2026-05-06 17:46 | 50.00372 | -1.49767 | 31100 ft | 458 kts | 24° |
| 2026-05-06 17:47 | 50.03157 | -1.47392 | 30389 ft | 455 kts | 30° |
| 2026-05-06 17:47 | 50.05837 | -1.44837 | 29677 ft | 449 kts | 31° |
| 2026-05-06 17:47 | 50.08462 | -1.42260 | 29011 ft | 442 kts | 31° |
| 2026-05-06 17:47 | 50.11080 | -1.39825 | 28396 ft | 435 kts | 28° |
| 2026-05-06 17:48 | 50.13702 | -1.37566 | 27823 ft | 427 kts | 28° |
| 2026-05-06 17:48 | 50.16272 | -1.35295 | 27256 ft | 421 kts | 28° |
| 2026-05-06 17:48 | 50.18770 | -1.32990 | 26717 ft | 415 kts | 30° |
| 2026-05-06 17:48 | 50.21234 | -1.30703 | 26184 ft | 408 kts | 29° |
| 2026-05-06 17:49 | 50.23664 | -1.28480 | 25674 ft | 403 kts | 29° |
| 2026-05-06 17:49 | 50.26079 | -1.26285 | 25137 ft | 399 kts | 29° |
| 2026-05-06 17:49 | 50.28465 | -1.24120 | 24626 ft | 395 kts | 28° |
| 2026-05-06 17:49 | 50.30833 | -1.21969 | 24121 ft | 391 kts | 28° |
| 2026-05-06 17:50 | 50.33169 | -1.19843 | 23634 ft | 387 kts | 28° |
| 2026-05-06 17:50 | 50.35486 | -1.17732 | 23057 ft | 384 kts | 28° |
| 2026-05-06 17:50 | 50.37749 | -1.15665 | 22542 ft | 379 kts | 29° |
| 2026-05-06 17:50 | 50.40018 | -1.13590 | 22024 ft | 375 kts | 29° |
| 2026-05-06 17:51 | 50.42254 | -1.11540 | 21542 ft | 370 kts | 29° |
| 2026-05-06 17:51 | 50.44466 | -1.09509 | 21073 ft | 366 kts | 29° |
| 2026-05-06 17:51 | 50.46653 | -1.07492 | 20557 ft | 363 kts | 30° |
| 2026-05-06 17:51 | 50.48713 | -1.05215 | 20064 ft | 362 kts | 39° |
| 2026-05-06 17:52 | 50.50421 | -1.02332 | 19585 ft | 361 kts | 52° |
| 2026-05-06 17:52 | 50.51843 | -0.99042 | 19123 ft | 378 kts | 57° |
| 2026-05-06 17:52 | 50.53267 | -0.95450 | 18646 ft | 390 kts | 58° |
| 2026-05-06 17:52 | 50.54667 | -0.91813 | 18104 ft | 387 kts | 58° |
| 2026-05-06 17:53 | 50.56085 | -0.88249 | 17540 ft | 382 kts | 56° |
| 2026-05-06 17:53 | 50.57567 | -0.84816 | 17001 ft | 377 kts | 54° |
| 2026-05-06 17:53 | 50.59031 | -0.81421 | 16532 ft | 373 kts | 55° |
| 2026-05-06 17:53 | 50.60458 | -0.78041 | 16056 ft | 370 kts | 56° |
| 2026-05-06 17:54 | 50.61862 | -0.74676 | 15553 ft | 366 kts | 56° |
| 2026-05-06 17:54 | 50.63251 | -0.71328 | 15081 ft | 363 kts | 56° |
| 2026-05-06 17:54 | 50.64621 | -0.68015 | 14604 ft | 360 kts | 56° |
| 2026-05-06 17:54 | 50.65984 | -0.64720 | 14127 ft | 357 kts | 56° |
| 2026-05-06 17:55 | 50.67327 | -0.61475 | 13644 ft | 345 kts | 56° |
| 2026-05-06 17:55 | 50.68567 | -0.58469 | 13138 ft | 310 kts | 56° |
| 2026-05-06 17:55 | 50.69690 | -0.55741 | 12679 ft | 284 kts | 55° |
| 2026-05-06 17:55 | 50.70752 | -0.53166 | 12411 ft | 277 kts | 55° |
| 2026-05-06 17:56 | 50.71798 | -0.50630 | 12144 ft | 275 kts | 55° |
| 2026-05-06 17:56 | 50.72838 | -0.48114 | 11859 ft | 273 kts | 55° |
| 2026-05-06 17:56 | 50.73880 | -0.45596 | 11464 ft | 276 kts | 55° |
| 2026-05-06 17:56 | 50.74926 | -0.43062 | 11171 ft | 274 kts | 55° |
| 2026-05-06 17:57 | 50.75731 | -0.41122 | 10931 ft | 273 kts | 54° |
| 2026-05-06 17:57 | 50.76802 | -0.38661 | 10662 ft | 271 kts | 53° |
| 2026-05-06 17:57 | 50.77849 | -0.36190 | 10388 ft | 269 kts | 56° |
| 2026-05-06 17:57 | 50.78824 | -0.33722 | 10255 ft | 262 kts | 55° |
| 2026-05-06 17:58 | 50.79836 | -0.31342 | 10000 ft | 260 kts | 54° |
| 2026-05-06 17:58 | 50.80825 | -0.28981 | 9973 ft | 255 kts | 55° |
| 2026-05-06 17:58 | 50.81775 | -0.26604 | 9971 ft | 256 kts | 56° |
| 2026-05-06 17:58 | 50.82717 | -0.24217 | 9973 ft | 256 kts | 56° |
| 2026-05-06 17:59 | 50.83692 | -0.21849 | 9974 ft | 257 kts | 54° |
| 2026-05-06 17:59 | 50.84696 | -0.19515 | 9978 ft | 258 kts | 53° |
| 2026-05-06 17:59 | 50.85707 | -0.17170 | 9976 ft | 258 kts | 54° |
| 2026-05-06 17:59 | 50.86675 | -0.14780 | 9979 ft | 258 kts | 57° |
| 2026-05-06 18:00 | 50.87730 | -0.12553 | 9952 ft | 256 kts | 36° |
| 2026-05-06 18:00 | 50.89344 | -0.11402 | 9987 ft | 252 kts | 5° |
| 2026-05-06 18:00 | 50.91039 | -0.11719 | 9996 ft | 251 kts | 336° |
| 2026-05-06 18:00 | 50.92485 | -0.13260 | 9993 ft | 252 kts | 324° |
| 2026-05-06 18:01 | 50.94044 | -0.14494 | 9993 ft | 251 kts | 336° |
| 2026-05-06 18:01 | 50.95630 | -0.15652 | 9983 ft | 251 kts | 330° |
| 2026-05-06 18:01 | 50.97103 | -0.17149 | 9979 ft | 251 kts | 324° |
| 2026-05-06 18:01 | 50.98463 | -0.18888 | 9889 ft | 250 kts | 319° |
| 2026-05-06 18:02 | 50.99694 | -0.20842 | 9550 ft | 252 kts | 303° |
| 2026-05-06 18:02 | 51.00231 | -0.23458 | 9279 ft | 253 kts | 272° |
| 2026-05-06 18:02 | 50.99833 | -0.26155 | 9014 ft | 257 kts | 240° |
| 2026-05-06 18:02 | 50.98592 | -0.28183 | 9020 ft | 261 kts | 211° |
| 2026-05-06 18:03 | 50.96860 | -0.28995 | 9010 ft | 265 kts | 181° |
| 2026-05-06 18:03 | 50.95076 | -0.28370 | 9014 ft | 266 kts | 151° |
| 2026-05-06 18:03 | 50.93697 | -0.26460 | 9010 ft | 265 kts | 121° |
| 2026-05-06 18:03 | 50.92670 | -0.24044 | 8931 ft | 266 kts | 135° |
| 2026-05-06 18:04 | 50.91260 | -0.22168 | 8978 ft | 266 kts | 130° |
| 2026-05-06 18:04 | 50.90410 | -0.19627 | 8985 ft | 263 kts | 98° |
| 2026-05-06 18:04 | 50.90405 | -0.16777 | 8987 ft | 259 kts | 81° |
| 2026-05-06 18:04 | 50.90466 | -0.13913 | 8974 ft | 261 kts | 91° |
| 2026-05-06 18:05 | 50.90265 | -0.11050 | 8976 ft | 261 kts | 96° |
| 2026-05-06 18:05 | 50.89994 | -0.08207 | 8973 ft | 261 kts | 91° |
| 2026-05-06 18:05 | 50.90325 | -0.05438 | 8964 ft | 257 kts | 61° |
| 2026-05-06 18:05 | 50.91465 | -0.03303 | 8579 ft | 256 kts | 31° |
| 2026-05-06 18:06 | 50.93113 | -0.02354 | 8231 ft | 253 kts | 7° |
| 2026-05-06 18:06 | 50.94869 | -0.02037 | 7899 ft | 253 kts | 2° |
| 2026-05-06 18:06 | 50.96560 | -0.02452 | 7615 ft | 251 kts | 333° |
| 2026-05-06 18:06 | 50.97868 | -0.04208 | 7329 ft | 250 kts | 302° |
| 2026-05-06 18:07 | 50.98425 | -0.06791 | 7057 ft | 249 kts | 277° |
| 2026-05-06 18:07 | 50.98562 | -0.09534 | 6741 ft | 250 kts | 273° |
| 2026-05-06 18:07 | 50.98621 | -0.12322 | 6497 ft | 248 kts | 271° |
| 2026-05-06 18:07 | 50.98646 | -0.15021 | 6231 ft | 247 kts | 271° |
| 2026-05-06 18:08 | 50.98653 | -0.17737 | 5966 ft | 246 kts | 271° |
| 2026-05-06 18:08 | 50.98649 | -0.20453 | 5641 ft | 246 kts | 270° |
| 2026-05-06 18:08 | 50.98639 | -0.23160 | 5378 ft | 244 kts | 270° |
| 2026-05-06 18:08 | 50.98625 | -0.25837 | 5233 ft | 238 kts | 270° |
| 2026-05-06 18:09 | 50.98607 | -0.28460 | 5008 ft | 237 kts | 270° |
| 2026-05-06 18:09 | 50.98588 | -0.31074 | 4769 ft | 236 kts | 270° |
| 2026-05-06 18:09 | 50.98567 | -0.33677 | 4508 ft | 236 kts | 271° |
| 2026-05-06 18:09 | 50.98542 | -0.36167 | 4281 ft | 235 kts | 270° |
| 2026-05-06 18:10 | 50.98511 | -0.38815 | 3990 ft | 236 kts | 270° |
| 2026-05-06 18:10 | 50.98626 | -0.41393 | 3684 ft | 235 kts | 291° |
| 2026-05-06 18:10 | 50.99519 | -0.43473 | 3486 ft | 228 kts | 324° |
| 2026-05-06 18:10 | 51.00860 | -0.44786 | 3265 ft | 226 kts | 333° |
| 2026-05-06 18:11 | 51.02250 | -0.45950 | 3020 ft | 226 kts | 334° |
| 2026-05-06 18:11 | 51.03176 | -0.46684 | 3032 ft | 224 kts | 335° |
| 2026-05-06 18:11 | 51.05050 | -0.48126 | 3032 ft | 223 kts | 336° |
| 2026-05-06 18:11 | 51.06408 | -0.49159 | 3047 ft | 209 kts | 336° |
| 2026-05-06 18:12 | 51.07669 | -0.50124 | 3040 ft | 192 kts | 336° |
| 2026-05-06 18:12 | 51.08832 | -0.51017 | 3021 ft | 182 kts | 336° |
| 2026-05-06 18:12 | 51.10007 | -0.51673 | 2989 ft | 180 kts | 359° |
| 2026-05-06 18:12 | 51.11150 | -0.51028 | 3027 ft | 180 kts | 41° |
| 2026-05-06 18:13 | 51.11710 | -0.49270 | 3049 ft | 184 kts | 78° |
| 2026-05-06 18:13 | 51.11887 | -0.47245 | 3047 ft | 185 kts | 81° |
| 2026-05-06 18:13 | 51.12028 | -0.45205 | 3030 ft | 185 kts | 82° |
| 2026-05-06 18:13 | 51.12150 | -0.43155 | 3025 ft | 185 kts | 82° |
| 2026-05-06 18:14 | 51.12230 | -0.41804 | 2992 ft | 186 kts | 82° |
| 2026-05-06 18:14 | 51.12348 | -0.39738 | 2666 ft | 187 kts | 82° |
| 2026-05-06 18:14 | 51.12473 | -0.37714 | 2416 ft | 179 kts | 82° |
| 2026-05-06 18:14 | 51.12597 | -0.35818 | 2175 ft | 163 kts | 81° |
| 2026-05-06 18:15 | 51.12717 | -0.34115 | 1945 ft | 149 kts | 79° |
| 2026-05-06 18:15 | 51.12896 | -0.32510 | 1793 ft | 146 kts | 76° |
| 2026-05-06 18:15 | 51.13118 | -0.30928 | 1613 ft | 146 kts | 73° |
| 2026-05-06 18:15 | 51.13356 | -0.29368 | 1411 ft | 146 kts | 73° |
| 2026-05-06 18:16 | 51.13595 | -0.27820 | 1191 ft | 143 kts | 72° |
| 2026-05-06 18:16 | 51.13833 | -0.26289 | 910 ft | 140 kts | 73° |
| 2026-05-06 18:16 | 51.14045 | -0.24733 | 727 ft | 147 kts | 76° |
| 2026-05-06 18:16 | 51.14250 | -0.23123 | 544 ft | 148 kts | 76° |
| 2026-05-06 18:17 | 51.14476 | -0.21506 | 345 ft | 151 kts | 76° |
| 2026-05-06 18:17 | 51.14688 | -0.19959 | 220 ft | 131 kts | 76° |
| 2026-05-06 18:17 | 51.14850 | -0.18822 | 214 ft | 73 kts | 78° |
| 2026-05-06 18:17 | 51.14920 | -0.18293 | 214 ft | 26 kts | 77° |
| 2026-05-06 18:18 | 51.14961 | -0.18039 | 219 ft | 22 kts | 70° |
| 2026-05-06 18:18 | 51.15029 | -0.17855 | 221 ft | 18 kts | 54° |
| 2026-05-06 18:18 | 51.15083 | -0.17772 | 222 ft | 7 kts | 22° |
| 2026-05-06 18:18 | 51.15102 | -0.17766 | 218 ft | 0 kts | 6° |
| 2026-05-06 18:19 | 51.15133 | -0.17766 | 215 ft | 6 kts | 357° |
| 2026-05-06 18:19 | 51.15174 | -0.17772 | 219 ft | 5 kts | 353° |
| 2026-05-06 18:20 | 51.15176 | -0.17772 | 219 ft | 0 kts | 353° |
| 2026-05-06 18:21 | 51.15218 | -0.17782 | 217 ft | 6 kts | 357° |
| 2026-05-06 18:21 | 51.15246 | -0.17758 | 217 ft | 5 kts | 45° |
| 2026-05-06 18:21 | 51.15267 | -0.17695 | 219 ft | 8 kts | 70° |
| 2026-05-06 18:21 | 51.15285 | -0.17591 | 211 ft | 11 kts | 77° |
| 2026-05-06 18:22 | 51.15298 | -0.17470 | 218 ft | 11 kts | 81° |
| 2026-05-06 18:22 | 51.15323 | -0.17392 | 222 ft | 7 kts | 39° |
| 2026-05-06 18:22 | 51.15357 | -0.17335 | 218 ft | 7 kts | 60° |
| 2026-05-06 18:22 | 51.15380 | -0.17266 | 217 ft | 6 kts | 54° |
| 2026-05-06 18:23 | 51.15407 | -0.17228 | 218 ft | 4 kts | 37° |
| 2026-05-06 18:23 | 51.15428 | -0.17203 | 217 ft | 3 kts | 36° |
| 2026-05-06 18:23 | 51.15441 | -0.17188 | 217 ft | 2 kts | 36° |
| 2026-05-06 18:23 | 51.15449 | -0.17180 | 221 ft | 1 kts | 35° |
| 2026-05-06 18:24 | 51.15456 | -0.17171 | 218 ft | 1 kts | 35° |
| 2026-05-06 18:24 | 51.15461 | -0.17166 | 221 ft | 0 kts | 35° |
| 2026-05-06 18:24 | 51.15462 | -0.17164 | 221 ft | 0 kts | 35° |